Time;durP1;ratioP1;P1;durP2;ratioP2;P2;SDS_P1;SDS_P2;PMS_P1;PMS_P2;Temp;Humidity;BMP_temperature;BMP_pressure;BME280_temperature;BME280_humidity;BME280_pressure;Samples;Min_cycle;Max_cycle;Signal;HPM_P1;HPM_P2
2023/01/07 00:01:41;;;;;;;1.60;1.27;;;10.50;90.90;;;13.70;49.92;98119.13;5013735;28;20041;-59
2023/01/07 00:04:14;;;;;;;2.43;1.57;;;10.50;90.80;;;13.71;49.91;98117.28;5014809;28;20061;-59
2023/01/07 00:06:43;;;;;;;3.25;1.90;;;10.50;90.90;;;13.71;49.84;98112.78;5014758;28;20037;-59
2023/01/07 00:09:15;;;;;;;6.50;3.17;;;10.50;90.60;;;13.68;50.00;98110.44;5014829;28;20416;-59
2023/01/07 00:11:43;;;;;;;5.63;2.73;;;10.50;90.90;;;13.66;49.85;98108.94;5014724;28;20042;-59
2023/01/07 00:14:13;;;;;;;7.40;4.33;;;10.50;91.20;;;13.64;50.20;98111.78;5013475;28;20045;-58
2023/01/07 00:16:41;;;;;;;2.53;1.70;;;10.40;91.30;;;13.65;49.96;98104.56;5014343;28;20045;-58
2023/01/07 00:19:15;;;;;;;2.33;1.70;;;10.40;91.10;;;13.65;50.09;98101.91;5013904;28;20045;-56
2023/01/07 00:21:42;;;;;;;3.22;1.73;;;10.40;91.20;;;13.64;49.89;98094.88;5014722;28;20244;-58
2023/01/07 00:24:11;;;;;;;1.60;1.17;;;10.40;91.10;;;13.64;50.08;98098.41;5014545;28;20402;-58
2023/01/07 00:26:39;;;;;;;2.10;1.07;;;10.40;91.00;;;13.66;49.73;98098.22;5014270;28;20113;-59
2023/01/07 00:29:08;;;;;;;1.40;1.23;;;10.40;90.60;;;13.65;49.80;98084.03;5013093;28;20057;-58
2023/01/07 00:31:39;;;;;;;1.70;1.13;;;10.40;90.30;;;13.67;49.93;98084.69;5013440;28;20113;-59
2023/01/07 00:34:07;;;;;;;1.20;1.10;;;10.50;90.30;;;13.69;49.66;98082.69;5013341;28;20061;-58
2023/01/07 00:36:45;;;;;;;2.40;1.00;;;10.50;90.20;;;13.69;49.73;98084.53;5012551;28;20045;-59
2023/01/07 00:39:19;;;;;;;2.10;1.40;;;10.50;90.10;;;13.69;49.70;98082.69;5013189;28;20042;-59
2023/01/07 00:44:36;;;;;;;1.83;1.10;;;10.40;89.90;;;13.63;49.80;98075.34;5020847;28;20046;-59
2023/01/07 00:47:04;;;;;;;1.50;1.10;;;10.40;90.10;;;13.61;49.88;98077.34;5013687;28;20046;-59
2023/01/07 00:49:31;;;;;;;1.73;1.20;;;10.40;90.30;;;13.61;49.80;98072.00;5012600;28;20516;-59
2023/01/07 00:51:59;;;;;;;1.37;1.20;;;10.40;90.10;;;13.59;49.65;98068.66;5020764;28;20050;-57
2023/01/07 00:54:26;;;;;;;2.90;1.07;;;10.40;90.00;;;13.59;49.83;98064.13;5012939;28;20053;-58
2023/01/07 00:56:54;;;;;;;3.13;1.70;;;10.40;90.20;;;13.60;49.92;98062.28;5013607;28;20042;-59
2023/01/07 00:59:22;;;;;;;1.80;1.50;;;10.40;90.10;;;13.59;49.92;98060.63;5013234;28;20056;-58
2023/01/07 01:01:50;;;;;;;1.90;1.10;;;10.40;90.20;;;13.59;49.84;98061.47;5028230;28;20501;-59
2023/01/07 01:04:18;;;;;;;1.97;1.30;;;10.40;90.40;;;13.61;49.87;98063.13;5005866;28;20042;-58
2023/01/07 01:06:46;;;;;;;1.27;1.03;;;10.40;90.30;;;13.59;49.71;98064.13;5012482;28;20053;-58
2023/01/07 01:09:13;;;;;;;1.00;0.93;;;10.40;90.10;;;13.59;49.46;98061.47;5013400;28;20053;-58
2023/01/07 01:11:41;;;;;;;0.67;0.60;;;10.40;88.80;;;13.62;48.91;98056.78;5012896;28;20046;-59
2023/01/07 01:14:10;;;;;;;0.87;0.83;;;10.40;87.40;;;13.63;48.89;98051.25;5020225;28;20046;-59
2023/01/07 01:16:38;;;;;;;0.70;0.67;;;10.40;86.50;;;13.66;49.02;98052.75;5012383;28;20046;-59
2023/01/07 01:19:06;;;;;;;1.17;0.80;;;10.50;86.40;;;13.65;48.99;98054.59;5011355;28;20057;-59
2023/01/07 01:21:33;;;;;;;0.90;0.80;;;10.40;86.70;;;13.65;49.13;98045.72;5013342;28;20041;-58
2023/01/07 01:24:01;;;;;;;1.83;0.90;;;10.40;87.20;;;13.65;49.34;98037.69;5012599;28;20057;-46
2023/01/07 01:26:28;;;;;;;1.53;1.00;;;10.40;87.60;;;13.64;49.36;98041.38;5013400;28;20042;-50
2023/01/07 01:28:56;;;;;;;1.23;1.10;;;10.40;88.00;;;13.64;49.52;98044.06;5011124;28;20048;-48
2023/01/07 01:31:24;;;;;;;2.10;1.43;;;10.40;88.50;;;13.62;49.49;98048.75;5012144;28;20042;-50
2023/01/07 01:33:55;;;;;;;3.50;1.47;;;10.40;88.70;;;13.63;49.65;98045.91;5013439;28;20594;-49
2023/01/07 01:36:24;;;;;;;1.80;1.30;;;10.40;88.80;;;13.62;49.48;98048.75;5028151;28;20057;-46
2023/01/07 01:38:56;;;;;;;2.10;1.23;;;10.40;88.70;;;13.62;49.54;98043.41;5027883;28;20054;-48
2023/01/07 01:41:23;;;;;;;2.40;1.50;;;10.40;89.10;;;13.63;49.62;98037.88;5028283;28;20042;-46
2023/01/07 01:43:53;;;;;;;2.23;1.50;;;10.40;89.20;;;13.62;49.74;98038.06;5011902;28;20057;-45
2023/01/07 01:46:36;;;;;;;1.67;1.27;;;10.40;89.30;;;13.59;49.69;98041.91;5004113;28;20052;-45
2023/01/07 01:49:19;;;;;;;2.27;1.80;;;10.40;89.60;;;13.58;49.77;98035.69;4996050;28;20498;-46
2023/01/07 01:52:14;;;;;;;1.77;1.53;;;10.30;90.10;;;13.58;49.99;98043.72;5012914;28;20046;-46
2023/01/07 01:54:47;;;;;;;1.87;1.43;;;10.40;90.20;;;13.58;50.07;98034.88;5012812;28;20049;-49
2023/01/07 01:57:16;;;;;;;;;;;10.30;90.50;;;13.60;50.04;98035.53;4995694;28;20060;-46
2023/01/07 01:59:50;;;;;;;2.90;1.63;;;10.30;90.80;;;13.57;50.01;98027.84;5011488;28;19925;-46
2023/01/07 02:02:31;;;;;;;2.20;1.70;;;10.20;91.60;;;13.52;50.23;98027.53;5019421;28;20053;-44
2023/01/07 02:05:01;;;;;;;2.43;1.70;;;10.20;92.00;;;13.48;50.34;98024.38;5010756;28;20497;-45
2023/01/07 02:07:28;;;;;;;3.40;2.17;;;10.20;91.80;;;13.48;50.34;98028.88;4995307;28;20046;-44
2023/01/07 02:10:08;;;;;;;3.07;2.07;;;10.20;92.00;;;13.47;50.21;98027.19;5010708;28;20056;-51
2023/01/07 02:13:04;;;;;;;2.57;1.83;;;10.20;91.90;;;13.45;50.36;98026.53;5011419;28;20065;-45
2023/01/07 02:15:56;;;;;;;2.50;1.93;;;10.20;91.60;;;13.44;50.35;98027.56;4996042;28;20048;-44
2023/01/07 02:19:26;;;;;;;3.63;2.17;;;10.20;91.70;;;13.41;50.53;98020.69;5018654;28;20046;-45
2023/01/07 02:22:07;;;;;;;3.30;2.23;;;10.20;91.50;;;13.46;50.35;98009.50;4980586;28;20058;-50
2023/01/07 02:24:54;;;;;;;5.00;2.17;;;10.20;92.00;;;13.44;50.41;98014.19;5004980;28;20057;-48
2023/01/07 02:27:48;;;;;;;3.47;2.23;;;10.20;92.00;;;13.44;50.51;98006.16;5010560;28;20068;-46
2023/01/07 02:30:51;;;;;;;3.05;2.20;;;10.20;92.40;;;13.41;50.53;98001.16;4996908;28;20049;-49
2023/01/07 02:33:32;;;;;;;2.87;2.17;;;10.20;92.70;;;13.41;50.52;98003.81;5018924;28;20038;-47
2023/01/07 02:36:18;;;;;;;2.67;1.80;;;10.20;92.70;;;13.38;50.39;98002.34;5011052;28;20038;-46
2023/01/07 02:39:31;;;;;;;3.03;1.93;;;10.10;92.70;;;13.36;50.49;97997.16;4994559;28;20068;-45
2023/01/07 02:42:30;;;;;;;3.27;2.00;;;10.10;92.60;;;13.38;50.60;97986.28;5023875;28;20049;-48
2023/01/07 02:45:15;;;;;;;3.87;2.00;;;10.20;92.20;;;13.37;50.40;97987.28;4997035;28;20050;-48
2023/01/07 02:48:12;;;;;;;4.53;2.30;;;10.10;92.20;;;13.41;50.46;97985.09;5005257;28;20046;-51
2023/01/07 02:50:40;;;;;;;2.83;2.27;;;10.20;92.30;;;13.39;50.38;97977.25;4996351;28;20054;-45
2023/01/07 02:53:13;;;;;;;2.63;2.00;;;10.20;92.30;;;13.40;50.40;97978.94;5011687;28;20050;-45
2023/01/07 02:56:17;;;;;;;2.50;1.90;;;10.20;92.00;;;13.37;50.22;97973.91;4994840;28;20046;-45
2023/01/07 02:59:22;;;;;;;;;;;10.20;91.50;;;13.41;49.79;97964.53;5021798;28;20512;-47
2023/01/07 03:02:37;;;;;;;2.47;1.90;;;10.10;90.60;;;13.36;50.34;97966.91;5019306;28;20385;-46
2023/01/07 03:05:22;;;;;;;3.30;2.10;;;10.10;91.90;;;13.33;50.12;97970.72;4988591;28;20057;-48
2023/01/07 03:08:26;;;;;;;2.63;2.07;;;10.00;91.30;;;13.33;50.12;97965.38;4991061;28;20297;-51
2023/01/07 03:11:06;;;;;;;3.13;1.63;;;10.10;91.20;;;13.35;50.04;97957.19;5003172;28;20054;-48
2023/01/07 03:13:52;;;;;;;2.20;1.60;;;10.10;91.20;;;13.34;50.28;97953.69;5000758;28;20053;-48
2023/01/07 03:16:40;;;;;;;2.87;1.70;;;10.10;91.30;;;13.34;50.13;97958.22;5006913;28;20073;-48
2023/01/07 03:19:31;;;;;;;1.93;1.60;;;10.10;90.90;;;13.32;50.15;97945.03;4990846;28;20054;-49
2023/01/07 03:22:02;;;;;;;3.07;1.80;;;10.10;90.60;;;13.32;49.95;97945.03;4991705;28;20054;-47
2023/01/07 03:24:32;;;;;;;2.33;1.63;;;10.10;90.10;;;13.31;49.90;97948.69;4999084;28;20046;-48
2023/01/07 03:27:04;;;;;;;2.03;1.70;;;10.10;90.20;;;13.33;49.95;97943.16;4978348;28;20054;-50
2023/01/07 03:29:32;;;;;;;2.60;1.80;;;10.10;89.70;;;13.32;49.98;97937.00;4987403;28;20046;-47
2023/01/07 03:32:21;;;;;;;2.57;1.57;;;10.10;89.70;;;13.35;49.92;97930.47;4979321;28;20153;-47
2023/01/07 03:34:48;;;;;;;2.93;1.70;;;10.20;88.90;;;13.34;49.67;97928.81;4979004;28;20046;-49
2023/01/07 03:37:22;;;;;;;2.97;1.93;;;10.10;88.90;;;13.34;49.70;97932.31;4978088;28;20061;-45
2023/01/07 03:39:51;;;;;;;2.63;1.58;;;10.10;88.60;;;13.34;49.62;97932.31;4994489;28;20054;-48
2023/01/07 03:42:41;;;;;;;5.30;2.57;;;10.10;88.70;;;13.35;49.49;97930.47;4995483;28;20046;-47
2023/01/07 03:45:14;;;;;;;;;;;10.10;88.50;;;13.42;49.52;97920.75;4995241;28;20038;-45
2023/01/07 03:47:49;;;;;;;9.70;5.23;;;10.10;87.20;;;13.41;49.29;97923.59;4994348;28;20260;-46
2023/01/07 03:50:19;;;;;;;17.90;7.03;;;10.10;88.40;;;13.36;49.25;97924.13;4994301;28;20552;-48
2023/01/07 03:52:48;;;;;;;6.20;3.67;;;10.10;88.30;;;13.33;49.41;97919.94;4994558;28;20042;-45
2023/01/07 03:55:17;;;;;;;5.10;1.70;;;10.10;87.30;;;13.34;49.27;97918.94;4978296;28;20049;-48
2023/01/07 03:57:46;;;;;;;3.23;1.63;;;10.10;87.40;;;13.35;49.34;97911.75;4994361;28;20045;-50
2023/01/07 04:00:15;;;;;;;1.73;1.50;;;10.20;87.60;;;13.33;49.24;97903.88;4994935;28;20058;-47
2023/01/07 04:02:49;;;;;;;2.43;1.40;;;10.20;86.80;;;13.35;49.50;97909.91;4995507;28;20394;-46
2023/01/07 04:05:27;;;;;;;2.83;1.97;;;10.10;86.90;;;13.34;49.29;97908.25;4986456;28;20050;-49
2023/01/07 04:07:54;;;;;;;2.13;1.47;;;10.10;87.00;;;13.35;49.04;97912.56;4994794;28;20517;-45
2023/01/07 04:10:24;;;;;;;1.63;1.37;;;10.20;86.90;;;13.35;49.24;97901.03;4993987;28;20050;-47
2023/01/07 04:12:52;;;;;;;1.53;1.30;;;10.10;86.50;;;13.35;49.21;97901.03;4994047;28;20046;-45
2023/01/07 04:15:19;;;;;;;2.47;1.83;;;10.20;86.90;;;13.34;49.08;97900.22;4994025;28;20063;-49
2023/01/07 04:17:47;;;;;;;1.37;1.20;;;10.10;86.00;;;13.33;48.72;97898.53;4994210;28;20046;-46
2023/01/07 04:20:16;;;;;;;1.27;1.13;;;10.10;85.40;;;13.31;48.84;97892.53;4993744;28;20055;-51
2023/01/07 04:22:44;;;;;;;1.73;1.30;;;10.10;85.50;;;13.29;48.83;97891.84;4993665;28;20043;-47
2023/01/07 04:25:12;;;;;;;1.40;1.30;;;10.10;85.60;;;13.30;48.90;97892.69;4993080;28;20046;-45
2023/01/07 04:27:40;;;;;;;1.20;1.10;;;10.00;85.40;;;13.30;48.51;97895.38;4993944;28;20050;-50
2023/01/07 04:30:09;;;;;;;1.30;1.20;;;10.00;85.20;;;13.28;48.72;97890.19;4994010;28;20046;-49
2023/01/07 04:32:37;;;;;;;1.33;1.23;;;10.00;85.00;;;13.27;48.85;97883.16;4993804;28;20050;-45
2023/01/07 04:35:05;;;;;;;1.80;1.30;;;10.00;85.10;;;13.27;48.87;97874.31;4993429;28;20054;-46
2023/01/07 04:37:33;;;;;;;2.90;1.20;;;10.00;85.30;;;13.28;48.89;97879.50;4992666;28;20053;-46
2023/01/07 04:40:01;;;;;;;1.57;1.13;;;10.00;85.30;;;13.28;48.70;97874.16;4993335;28;20065;-45
2023/01/07 04:42:34;;;;;;;3.57;2.20;;;10.00;85.50;;;13.30;48.90;97882.84;4994796;28;20067;-47
2023/01/07 04:45:02;;;;;;;1.67;1.30;;;10.10;85.70;;;13.29;48.91;97877.66;4974268;28;20050;-48
2023/01/07 04:47:31;;;;;;;2.03;1.50;;;10.00;85.50;;;13.30;48.88;97871.31;5001287;28;20046;-46
2023/01/07 04:49:59;;;;;;;2.10;1.47;;;10.10;85.40;;;13.29;48.74;97873.13;4993291;28;20066;-46
2023/01/07 04:52:31;;;;;;;1.87;1.10;;;10.10;85.20;;;13.29;48.81;97870.44;4993437;28;20422;-47
2023/01/07 04:54:58;;;;;;;2.80;1.67;;;10.10;84.80;;;13.29;48.57;97861.59;4993598;28;20054;-49
2023/01/07 04:57:27;;;;;;;1.87;1.33;;;10.10;84.50;;;13.29;48.65;97866.94;4992746;28;20061;-45
2023/01/07 04:59:54;;;;;;;2.10;1.50;;;10.10;84.50;;;13.28;48.53;97862.59;4994024;28;20058;-48
2023/01/07 05:02:22;;;;;;;1.33;1.00;;;10.00;84.30;;;13.28;48.77;97860.78;4993042;28;20418;-49
2023/01/07 05:04:50;;;;;;;1.53;1.23;;;10.10;84.70;;;13.29;48.52;97856.25;4993221;28;20445;-45
2023/01/07 05:07:20;;;;;;;1.10;1.00;;;10.10;84.30;;;13.29;48.48;97854.41;4992682;28;20050;-47
2023/01/07 05:09:48;;;;;;;1.80;1.43;;;10.10;83.90;;;13.30;48.17;97856.13;4992425;28;20038;-45
2023/01/07 05:12:17;;;;;;;1.50;1.27;;;10.20;83.60;;;13.32;48.29;97851.44;4992658;28;20560;-45
2023/01/07 05:14:45;;;;;;;1.90;1.20;;;10.10;83.20;;;13.32;48.17;97846.09;4976822;28;20540;-48
2023/01/07 05:17:13;;;;;;;1.33;1.20;;;10.10;82.90;;;13.33;48.13;97845.06;4992354;28;20046;-47
2023/01/07 05:19:40;;;;;;;1.97;1.20;;;10.20;83.00;;;13.35;47.84;97858.25;4975497;28;20430;-46
2023/01/07 05:22:11;;;;;;;1.50;1.07;;;10.20;82.50;;;13.34;47.55;97844.06;5007190;28;20050;-48
2023/01/07 05:24:40;;;;;;;1.90;1.37;;;10.20;81.70;;;13.30;47.68;97845.44;4992682;28;20046;-47
2023/01/07 05:27:08;;;;;;;1.13;0.93;;;10.20;80.70;;;13.26;47.39;97838.72;4992151;28;20066;-48
2023/01/07 05:29:37;;;;;;;1.70;1.50;;;10.20;80.40;;;13.26;47.71;97835.19;4992924;28;20050;-46
2023/01/07 05:32:05;;;;;;;1.13;1.03;;;10.20;80.50;;;13.28;47.72;97838.53;4992675;28;20403;-46
2023/01/07 05:34:33;;;;;;;2.37;1.60;;;10.10;80.80;;;13.28;47.61;97842.06;4992813;28;20046;-48
2023/01/07 05:37:01;;;;;;;1.73;1.20;;;10.10;80.90;;;13.27;47.44;97823.50;4992199;28;20420;-45
2023/01/07 05:39:30;;;;;;;1.20;1.10;;;10.10;81.00;;;13.25;47.77;97829.03;4992500;28;20054;-46
2023/01/07 05:41:58;;;;;;;1.60;1.20;;;10.00;81.20;;;13.25;47.51;97823.69;4992287;28;20051;-48
2023/01/07 05:44:26;;;;;;;1.53;1.30;;;10.10;81.00;;;13.25;47.58;97825.53;4992132;28;20042;-46
2023/01/07 05:46:53;;;;;;;1.77;1.33;;;10.00;80.70;;;13.23;47.69;97828.38;4993229;28;20050;-49
2023/01/07 05:49:21;;;;;;;1.67;1.33;;;10.00;81.30;;;13.20;47.69;97816.19;4993004;28;20046;-47
2023/01/07 05:51:48;;;;;;;1.60;1.27;;;10.00;81.60;;;13.22;47.68;97807.97;4993267;28;20054;-47
2023/01/07 05:54:16;;;;;;;2.53;1.40;;;10.00;81.60;;;13.20;47.78;97810.84;4992036;28;20050;-48
2023/01/07 05:56:43;;;;;;;2.67;1.80;;;9.90;82.30;;;13.18;47.64;97810.19;4993113;28;20474;-45
2023/01/07 05:59:11;;;;;;;1.30;1.10;;;10.00;82.00;;;13.17;47.57;97808.50;4993059;28;20073;-45
2023/01/07 06:01:38;;;;;;;1.50;1.00;;;9.90;81.20;;;13.16;47.70;97798.84;4992911;28;20042;-46
2023/01/07 06:04:07;;;;;;;2.33;1.10;;;9.90;81.40;;;13.16;47.84;97804.19;4992106;28;20418;-47
2023/01/07 06:06:34;;;;;;;1.33;1.20;;;9.90;81.30;;;13.16;47.67;97806.00;4992625;28;20043;-44
2023/01/07 06:09:02;;;;;;;1.70;1.37;;;9.90;81.30;;;13.16;47.35;97798.84;4991883;28;20053;-46
2023/01/07 06:11:31;;;;;;;2.17;1.40;;;9.90;81.10;;;13.16;47.47;97800.66;4992654;28;20042;-48
2023/01/07 06:13:58;;;;;;;2.30;1.30;;;9.90;81.10;;;13.16;47.42;97792.63;4993069;28;20050;-46
2023/01/07 06:16:27;;;;;;;1.30;1.20;;;9.90;80.80;;;13.15;47.50;97793.66;4992775;28;20046;-47
2023/01/07 06:18:54;;;;;;;1.77;1.20;;;9.90;81.10;;;13.14;47.79;97791.97;4992263;28;20391;-50
2023/01/07 06:21:22;;;;;;;1.60;1.30;;;9.90;81.20;;;13.13;47.36;97790.34;4992337;28;20061;-45
2023/01/07 06:23:49;;;;;;;1.17;1.07;;;9.90;81.10;;;13.11;47.40;97787.00;4991400;28;20050;-45
2023/01/07 06:26:17;;;;;;;1.43;1.00;;;9.90;81.10;;;13.10;47.42;97785.31;4991876;28;20046;-49
2023/01/07 06:28:44;;;;;;;1.27;1.17;;;9.80;80.90;;;13.11;47.68;97781.66;4992516;28;20042;-46
2023/01/07 06:31:12;;;;;;;2.67;1.30;;;9.90;81.00;;;13.11;47.41;97782.47;4992790;28;20050;-45
2023/01/07 06:33:39;;;;;;;2.57;1.60;;;9.80;81.00;;;13.12;47.68;97783.31;4992693;28;20421;-47
2023/01/07 06:36:07;;;;;;;1.87;1.50;;;9.80;81.00;;;13.11;47.34;97784.31;4992504;28;20046;-47
2023/01/07 06:38:35;;;;;;;1.33;1.20;;;9.90;81.30;;;13.09;47.39;97789.00;4990987;28;20498;-46
2023/01/07 06:41:03;;;;;;;2.47;2.13;;;9.80;81.20;;;13.07;47.54;97781.16;4992336;28;20057;-44
2023/01/07 06:43:30;;;;;;;2.53;1.70;;;9.80;81.30;;;13.03;47.68;97784.34;4992150;28;20302;-47
2023/01/07 06:45:58;;;;;;;3.80;2.83;;;9.80;81.40;;;13.03;47.56;97781.66;4992205;28;20512;-45
2023/01/07 06:48:25;;;;;;;3.13;2.20;;;9.80;81.50;;;13.02;47.63;97775.50;4991918;28;20042;-45
2023/01/07 06:50:53;;;;;;;2.77;2.03;;;9.80;81.40;;;13.02;47.64;97774.66;4992120;28;20046;-47
2023/01/07 06:53:21;;;;;;;3.07;1.90;;;9.80;81.40;;;13.02;47.61;97770.16;4991877;28;20042;-44
2023/01/07 06:55:49;;;;;;;2.73;2.17;;;9.80;81.40;;;13.01;47.66;97768.50;4991957;28;20096;-48
2023/01/07 06:58:17;;;;;;;2.93;2.17;;;9.80;81.60;;;12.98;47.53;97766.16;4990671;28;20072;-49
2023/01/07 07:00:45;;;;;;;2.70;1.67;;;9.70;81.70;;;12.97;47.82;97761.84;4991392;28;20073;-49
2023/01/07 07:03:12;;;;;;;2.47;1.73;;;9.70;82.00;;;12.95;47.70;97767.34;4992083;28;20050;-44
2023/01/07 07:05:40;;;;;;;2.10;1.40;;;9.70;81.90;;;12.94;47.99;97760.31;4991957;28;20114;-46
2023/01/07 07:08:07;;;;;;;3.33;1.70;;;9.70;82.20;;;12.94;47.76;97760.31;4991936;28;20042;-48
2023/01/07 07:10:35;;;;;;;2.40;1.70;;;9.70;82.20;;;12.95;47.85;97764.69;4991600;28;20046;-44
2023/01/07 07:13:03;;;;;;;2.03;1.63;;;9.70;82.30;;;12.95;47.83;97759.34;4992043;28;20539;-45
2023/01/07 07:15:30;;;;;;;2.10;1.60;;;9.80;81.80;;;12.95;47.73;97759.34;4991902;28;20053;-46
2023/01/07 07:17:58;;;;;;;2.27;1.87;;;9.70;82.10;;;12.94;47.68;97760.31;4991553;28;20057;-46
2023/01/07 07:20:25;;;;;;;3.40;1.90;;;9.70;81.90;;;12.93;47.82;97771.19;4990556;28;20062;-44
2023/01/07 07:22:53;;;;;;;3.40;2.03;;;9.70;81.90;;;12.90;47.92;97764.34;4991912;28;20050;-47
2023/01/07 07:25:20;;;;;;;2.97;1.67;;;9.70;82.20;;;12.89;47.66;97768.06;4991150;28;20051;-45
2023/01/07 07:27:48;;;;;;;2.67;1.67;;;9.70;82.20;;;12.89;47.95;97764.53;4991879;28;20042;-45
2023/01/07 07:30:16;;;;;;;2.80;1.83;;;9.60;82.10;;;12.87;47.61;97763.88;5006604;28;20047;-48
2023/01/07 07:32:43;;;;;;;2.37;1.60;;;9.70;82.00;;;12.86;47.82;97759.53;4990546;28;20050;-47
2023/01/07 07:35:12;;;;;;;3.20;2.17;;;9.60;81.50;;;12.82;47.59;97755.56;4991900;28;20049;-45
2023/01/07 07:37:40;;;;;;;3.17;2.20;;;9.60;81.60;;;12.82;47.72;97759.06;4990340;28;20498;-45
2023/01/07 07:40:08;;;;;;;5.87;3.80;;;9.60;81.90;;;12.82;47.90;97750.22;4986063;28;20541;-45
2023/01/07 07:42:37;;;;;;;3.70;2.40;;;9.60;81.50;;;12.83;48.04;97746.53;4992508;28;20057;-46
2023/01/07 07:45:25;;;;;;;4.53;3.23;;;9.60;81.80;;;12.86;47.97;97746.19;4992401;28;20046;-42
2023/01/07 07:47:52;;;;;;;4.83;3.63;;;9.60;81.90;;;12.84;47.94;97746.34;4992443;28;20053;-47
2023/01/07 07:50:20;;;;;;;3.33;2.37;;;9.60;81.80;;;12.85;47.21;97736.50;4992369;28;20049;-44
2023/01/07 07:52:48;;;;;;;2.57;1.90;;;9.60;80.70;;;12.83;47.36;97735.84;4992222;28;20050;-47
2023/01/07 07:55:15;;;;;;;3.57;2.00;;;9.60;80.30;;;12.85;47.35;97739.97;4992486;28;20358;-48
2023/01/07 07:57:57;;;;;;;6.53;3.83;;;9.60;80.30;;;12.82;47.51;97729.66;4985781;28;20053;-45
2023/01/07 08:00:24;;;;;;;10.73;4.77;;;9.60;79.90;;;12.82;47.38;97731.50;4991120;28;20046;-49
2023/01/07 08:02:55;;;;;;;5.67;2.97;;;9.60;80.20;;;12.84;47.35;97734.84;4992310;28;20042;-46
2023/01/07 08:05:23;;;;;;;3.50;2.13;;;9.60;79.90;;;12.86;47.32;97733.66;4991358;28;20096;-48
2023/01/07 08:07:50;;;;;;;2.87;2.17;;;9.60;79.70;;;12.87;47.29;97730.00;4992013;28;20705;-46
2023/01/07 08:10:19;;;;;;;2.30;1.70;;;9.60;80.00;;;12.88;47.34;97733.47;4991962;28;20042;-44
2023/01/07 08:12:49;;;;;;;2.97;1.87;;;9.60;80.10;;;12.89;47.26;97727.13;4995466;28;20034;-44
2023/01/07 08:15:17;;;;;;;4.30;1.93;;;9.60;80.10;;;12.89;47.32;97719.09;4996272;28;20053;-43
2023/01/07 08:17:44;;;;;;;9.27;7.53;;;9.60;80.00;;;12.87;47.25;97711.28;4987585;28;20062;-44
2023/01/07 08:20:12;;;;;;;4.60;2.57;;;9.60;80.10;;;12.85;47.00;97712.44;4995380;28;20049;-44
2023/01/07 08:22:39;;;;;;;3.93;2.97;;;9.60;79.70;;;12.83;47.17;97712.63;4991142;28;20042;-43
2023/01/07 08:25:07;;;;;;;2.77;1.97;;;9.60;79.60;;;12.86;46.89;97706.94;4994911;28;20425;-45
2023/01/07 08:27:35;;;;;;;1.53;1.33;;;9.60;79.70;;;12.86;47.24;97701.59;4994487;28;20045;-47
2023/01/07 08:30:03;;;;;;;4.50;2.83;;;9.60;79.70;;;12.86;47.13;97708.78;4995048;28;20054;-44
2023/01/07 08:32:30;;;;;;;4.83;3.30;;;9.60;79.60;;;12.87;47.22;97710.44;4995657;28;20051;-45
2023/01/07 08:34:58;;;;;;;7.13;4.67;;;9.60;80.60;;;12.88;47.35;97710.25;4995581;28;20426;-46
2023/01/07 08:37:29;;;;;;;5.90;3.97;;;9.70;79.70;;;12.91;47.29;97707.25;4995089;28;20062;-48
2023/01/07 08:39:56;;;;;;;4.57;3.60;;;9.70;79.90;;;12.92;47.38;97708.06;4994986;28;20046;-46
2023/01/07 08:42:24;;;;;;;3.83;2.47;;;9.70;80.40;;;12.93;47.33;97709.72;4995314;28;20050;-44
2023/01/07 08:44:51;;;;;;;3.93;2.80;;;9.70;80.60;;;12.93;47.47;97699.91;4995496;28;20046;-47
2023/01/07 08:47:19;;;;;;;3.40;2.40;;;9.70;80.60;;;12.95;47.46;97703.22;4995193;28;20050;-44
2023/01/07 08:49:46;;;;;;;3.03;2.20;;;9.70;80.70;;;12.95;47.49;97700.56;4995062;28;20528;-46
2023/01/07 08:52:14;;;;;;;6.60;2.10;;;9.70;80.80;;;12.95;47.59;97702.38;4994819;28;20046;-43
2023/01/07 08:54:41;;;;;;;5.30;3.40;;;9.70;81.00;;;12.95;47.49;97703.22;4995154;28;20042;-44
2023/01/07 08:57:09;;;;;;;4.93;2.43;;;9.70;81.00;;;12.93;47.45;97702.56;4993605;28;20521;-45
2023/01/07 08:59:39;;;;;;;4.17;2.90;;;9.70;80.90;;;12.95;47.63;97699.69;4994848;28;20395;-47
2023/01/07 09:02:13;;;;;;;3.77;2.13;;;9.70;80.80;;;12.96;47.62;97706.72;4995143;28;20049;-44
2023/01/07 09:04:41;;;;;;;2.70;2.17;;;9.70;80.70;;;12.97;47.40;97706.56;4994458;28;20049;-45
2023/01/07 09:07:09;;;;;;;3.37;2.37;;;9.70;80.70;;;12.99;47.75;97693.03;4994664;28;20379;-45
2023/01/07 09:09:37;;;;;;;2.83;2.53;;;9.70;80.90;;;13.00;47.61;97692.81;4994569;28;20050;-46
2023/01/07 09:12:06;;;;;;;4.03;2.33;;;9.80;81.00;;;13.03;47.57;97701.50;4994741;28;20050;-48
2023/01/07 09:14:37;;;;;;;2.80;2.00;;;9.80;80.60;;;13.04;47.33;97695.16;4993537;28;20053;-50
2023/01/07 09:17:04;;;;;;;3.43;2.67;;;9.80;80.60;;;13.03;47.37;97696.16;4994419;28;20046;-43
2023/01/07 09:19:32;;;;;;;3.10;2.17;;;9.80;80.60;;;13.04;47.22;97698.66;4994580;28;20046;-44
2023/01/07 09:21:59;;;;;;;2.90;1.93;;;9.80;80.40;;;13.03;47.50;97696.16;4994876;28;20656;-45
2023/01/07 09:24:27;;;;;;;7.73;3.80;;;9.80;80.10;;;13.02;47.45;97692.66;4993709;28;20413;-48
2023/01/07 09:26:54;;;;;;;3.97;2.77;;;9.80;80.00;;;13.00;47.26;97698.16;4994531;28;20051;-48
2023/01/07 09:29:22;;;;;;;3.90;2.63;;;9.80;79.90;;;13.03;47.20;97693.47;4994433;28;20046;-46
2023/01/07 09:31:49;;;;;;;3.53;2.47;;;9.80;79.30;;;13.03;47.07;97688.13;4994377;28;20509;-43
2023/01/07 09:34:17;;;;;;;4.67;2.67;;;9.80;79.70;;;13.04;47.10;97700.50;4994665;28;20042;-47
2023/01/07 09:36:45;;;;;;;3.83;3.10;;;9.80;79.20;;;13.02;47.28;97700.66;4994164;28;20046;-45
2023/01/07 09:39:13;;;;;;;4.60;3.17;;;9.80;79.30;;;13.04;47.21;97695.97;4994513;28;20050;-46
2023/01/07 09:42:21;;;;;;;4.80;2.97;;;9.80;79.60;;;13.04;47.32;97692.47;4994250;28;20499;-44
2023/01/07 09:45:16;;;;;;;4.77;2.63;;;9.80;79.40;;;13.08;47.35;97685.78;4986559;28;20042;-44
2023/01/07 09:47:46;;;;;;;;;;;9.80;79.50;;;13.15;47.23;97684.06;4993576;28;20435;-46
2023/01/07 09:50:48;;;;;;;4.90;3.33;;;9.80;79.20;;;13.16;47.20;97677.69;5009018;28;19921;-47
2023/01/07 09:53:29;;;;;;;5.00;3.20;;;9.90;80.10;;;13.19;47.31;97669.34;4990165;28;20061;-46
2023/01/07 09:55:59;;;;;;;6.50;3.87;;;9.90;79.40;;;13.20;47.16;97666.50;4993229;28;20053;-43
2023/01/07 09:58:43;;;;;;;5.17;3.53;;;10.00;79.60;;;13.27;47.21;97668.44;4993195;28;20049;-42
2023/01/07 10:01:35;;;;;;;6.07;3.50;;;10.10;79.50;;;13.31;47.07;97665.25;4992483;28;20042;-45
2023/01/07 10:04:29;;;;;;;5.57;3.67;;;10.10;79.00;;;13.36;47.12;97664.75;4979778;28;20042;-45
2023/01/07 10:07:09;;;;;;;5.40;3.83;;;10.20;78.10;;;13.42;47.18;97653.34;5002587;28;20074;-48
2023/01/07 10:09:52;;;;;;;4.80;3.50;;;10.20;78.90;;;13.42;46.89;97652.50;4988824;28;20073;-46
2023/01/07 10:12:32;;;;;;;7.30;4.35;;;10.20;77.20;;;13.48;46.93;97654.47;4988922;28;20049;-46
2023/01/07 10:15:22;;;;;;;6.30;3.93;;;10.30;77.60;;;13.48;46.65;97652.63;5002210;28;20050;-43
2023/01/07 10:18:16;;;;;;;6.17;4.27;;;10.30;78.20;;;13.48;46.77;97643.75;4987742;28;20046;-43
2023/01/07 10:21:32;;;;;;;5.95;4.00;;;10.30;77.90;;;13.45;46.67;97636.09;4989230;28;20050;-48
2023/01/07 10:24:28;;;;;;;4.70;3.30;;;10.30;77.50;;;13.42;46.95;97634.63;5002788;28;20058;-45
2023/01/07 10:27:08;;;;;;;6.90;5.00;;;10.20;78.20;;;13.43;46.77;97632.75;4984997;28;20050;-44
2023/01/07 10:29:45;;;;;;;6.00;3.73;;;10.20;78.00;;;13.47;47.01;97634.88;5002456;28;20106;-45
2023/01/07 10:32:20;;;;;;;6.23;4.00;;;10.20;78.50;;;13.54;47.20;97632.34;4988231;28;20054;-45
2023/01/07 10:34:52;;;;;;;5.13;3.63;;;10.30;78.50;;;13.56;46.75;97633.00;4986470;28;20571;-44
2023/01/07 10:37:37;;;;;;;5.43;3.70;;;10.40;77.80;;;13.57;46.90;97627.47;5002787;28;20061;-46
2023/01/07 10:40:19;;;;;;;5.43;3.40;;;10.40;77.80;;;13.61;46.57;97621.75;4986618;28;20042;-46
2023/01/07 10:43:08;;;;;;;5.60;3.63;;;10.40;77.60;;;13.61;46.43;97613.72;4985999;28;20050;-48
2023/01/07 10:46:04;;;;;;;4.73;3.60;;;10.40;76.80;;;13.65;46.62;97607.84;5020414;28;21403;-46
2023/01/07 10:48:49;;;;;;;5.93;3.93;;;10.50;77.50;;;13.70;46.67;97604.59;4993685;28;20058;-46
2023/01/07 10:52:02;;;;;;;4.70;3.37;;;10.50;77.50;;;13.68;46.69;97601.28;4986895;28;20405;-45